Petrolina Ocean — 5BQR2 — position and weather

sailwx.info

Track history (hours):
 
Tides and Currents Weather Stations Pressure Air Temp Water Temp Dewpoint Dewpoint Depression Visibility Wind Speed Wind Dir Waves Ship Positions

Petrolina Ocean

Last reported at 2017-Sep-21 12:23 UTC. Time now 2017-Sep-21 18:01 UTC.
Position N 32°51' E 035°01'.

Length 113 m; draft 5.6 m.

Type: Tanker. MMSI: 212422000.

Date/timePositionNaut miles runAvg speedWind from/ knotsBaromVisibWave heightAir tempDewpointWater temp
2017-Sep-21 12:23N 32°51' E 035°01'3 0.2
2017-Sep-21 01:43N 32°53' E 035°01'1 0.1
2017-Sep-20 17:43N 32°53' E 034°59'311.6
2017-Sep-20 17:29N 32°54' E 034°56'714.0
2017-Sep-20 16:57N 32°55' E 034°48'714.1
2017-Sep-20 16:30N 32°56' E 034°40'  
2017-Sep-17 10:37N 37°29' E 024°01'612.8
2017-Sep-17 10:07N 37°33' E 023°54'112.7
2017-Sep-17 10:01N 37°34' E 023°53'612.6
2017-Sep-17 09:31N 37°37' E 023°46'612.0
2017-Sep-17 09:01N 37°42' E 023°41'612.8
2017-Sep-17 08:31N 37°47' E 023°37'612.2
2017-Sep-17 08:00N 37°53' E 023°36'4 8.4
2017-Sep-17 07:31N 37°57' E 023°34'4 8.3
2017-Sep-17 07:00N 38°01' E 023°35'1 1.0
2017-Sep-17 06:28N 38°01' E 023°36'0 0.0
2017-Sep-17 05:58N 38°01' E 023°36'0 0.0
2017-Sep-17 05:19N 38°01' E 023°36'0 0.0
2017-Sep-17 04:55N 38°02' E 023°36'0 0.0
2017-Sep-17 04:28N 38°01' E 023°36'0 0.0
2017-Sep-17 03:58N 38°01' E 023°36'0 0.0
2017-Sep-17 03:25N 38°01' E 023°36'0 0.0
2017-Sep-17 02:58N 38°01' E 023°36'0 0.0
2017-Sep-17 02:28N 38°01' E 023°36'0 0.0
2017-Sep-17 01:58N 38°01' E 023°36'0 0.0
2017-Sep-17 01:28N 38°01' E 023°36'0 0.0
2017-Sep-17 00:58N 38°01' E 023°36'0 0.0
2017-Sep-17 00:25N 38°01' E 023°36'0 0.0
2017-Sep-16 23:58N 38°02' E 023°36'0 0.0
2017-Sep-16 23:25N 38°01' E 023°36'0 0.0
2017-Sep-16 22:55N 38°01' E 023°36'0 0.0
2017-Sep-16 22:28N 38°01' E 023°36'0 0.0
2017-Sep-16 21:55N 38°01' E 023°36'0 0.0
2017-Sep-16 21:25N 38°01' E 023°36'0 0.0
2017-Sep-16 20:43N 38°01' E 023°36'0 0.0
2017-Sep-16 20:28N 38°01' E 023°36'0 0.0
2017-Sep-16 19:55N 38°01' E 023°36'0 0.0
2017-Sep-16 19:28N 38°02' E 023°36'0 0.0
2017-Sep-16 18:49N 38°01' E 023°36'0 0.0
2017-Sep-16 18:25N 38°01' E 023°36'0 0.0
2017-Sep-16 17:55N 38°01' E 023°36'0 0.0
2017-Sep-16 17:25N 38°02' E 023°36'0 0.0
2017-Sep-16 16:58N 38°01' E 023°36'0 0.0
2017-Sep-16 16:25N 38°01' E 023°36'0 0.0
2017-Sep-16 15:58N 38°02' E 023°36'0 0.0
2017-Sep-16 15:28N 38°02' E 023°36'0 0.0
2017-Sep-16 14:55N 38°01' E 023°36'0 0.0
2017-Sep-16 14:28N 38°02' E 023°36'0 0.0
2017-Sep-16 13:55N 38°02' E 023°36'0 0.0
2017-Sep-16 13:19N 38°01' E 023°36'0 0.0
2017-Sep-16 12:55N 38°02' E 023°36'0 0.0
2017-Sep-16 12:28N 38°02' E 023°36'0 0.0
2017-Sep-16 11:55N 38°01' E 023°36'0 0.0
2017-Sep-16 11:28N 38°02' E 023°36'0 0.0
2017-Sep-16 10:55N 38°02' E 023°36'0 0.0
2017-Sep-16 10:30N 38°02' E 023°36'1 2.7
2017-Sep-16 10:00N 38°01' E 023°34'3 6.1
2017-Sep-16 09:31N 37°58' E 023°33'4 8.0
2017-Sep-16 09:00N 37°55' E 023°36'0 0.5
2017-Sep-16 08:31N 37°55' E 023°36'0 0.5
2017-Sep-16 08:01N 37°55' E 023°36'1 1.1
2017-Sep-16 07:31N 37°54' E 023°36'510.4
2017-Sep-16 07:00N 37°50' E 023°40'612.8
2017-Sep-16 06:30N 37°44' E 023°43'713.1
2017-Sep-16 06:01N 37°39' E 023°48'713.3
2017-Sep-16 05:28N 37°34' E 023°55'713.1
2017-Sep-16 04:58N 37°30' E 024°01'613.2
2017-Sep-16 04:30N 37°25' E 024°06'612.6
2017-Sep-16 04:01N 37°21' E 024°12'45213.0
2017-Sep-14 17:15N 34°31' E 032°49'311.8
2017-Sep-14 17:00N 34°31' E 032°52'612.5
2017-Sep-14 16:30N 34°31' E 032°60'612.5
2017-Sep-14 16:00N 34°32' E 033°07'613.0
2017-Sep-14 15:30N 34°35' E 033°14'713.0
2017-Sep-14 15:00N 34°38' E 033°21'813.1
2017-Sep-14 14:23N 34°42' E 033°30'813.3
2017-Sep-14 13:47N 34°46' E 033°39'312.8
2017-Sep-14 13:30N 34°49' E 033°40'8 0.3
2017-Sep-13 13:49N 34°57' E 033°40'1 2.4
2017-Sep-13 13:29N 34°56' E 033°40'28 9.5
2017-Sep-13 10:33N 34°30' E 033°52'1012.9
2017-Sep-13 09:44N 34°20' E 033°56'1412.9
2017-Sep-13 08:40N 34°07' E 034°02'213.0
2017-Sep-13 08:30N 34°05' E 034°03'1013.0
2017-Sep-13 07:45N 33°56' E 034°07'513.0
2017-Sep-13 07:22N 33°51' E 034°09'1712.8
2017-Sep-13 06:03N 33°36' E 034°16'112.8
2017-Sep-13 06:00N 33°35' E 034°17'612.8
2017-Sep-13 05:30N 33°29' E 034°19'613.0
2017-Sep-13 05:00N 33°23' E 034°22'713.2
2017-Sep-13 04:27N 33°16' E 034°25'613.3
2017-Sep-13 04:00N 33°10' E 034°28'713.4
2017-Sep-13 03:30N 33°04' E 034°30'612.7
2017-Sep-13 03:00N 32°58' E 034°34'713.2
2017-Sep-13 02:30N 32°57' E 034°41'713.1
2017-Sep-13 02:00N 32°56' E 034°49'612.4
2017-Sep-13 01:30N 32°54' E 034°56'6 8.4
2017-Sep-13 00:48N 32°49' E 035°01'  
Track history (hours):
 
Tides and Currents Weather Stations Pressure Air Temp Water Temp Dewpoint Dewpoint Depression Visibility Wind Speed Wind Dir Waves Ship Positions

Petrolina Ocean

Last reported at 2017-Sep-21 12:23 UTC. Time now 2017-Sep-21 18:01 UTC.
Position N 32°51' E 035°01'.

Length 113 m; draft 5.6 m.

Type: Tanker. MMSI: 212422000.

Date/timePositionNaut miles runAvg speedWind from/ knotsBaromVisibWave heightAir tempDewpointWater temp
2017-Sep-21 12:23N 32°51' E 035°01'3 0.2
2017-Sep-21 01:43N 32°53' E 035°01'1 0.1
2017-Sep-20 17:43N 32°53' E 034°59'311.6
2017-Sep-20 17:29N 32°54' E 034°56'714.0
2017-Sep-20 16:57N 32°55' E 034°48'714.1
2017-Sep-20 16:30N 32°56' E 034°40'  
2017-Sep-17 10:37N 37°29' E 024°01'612.8
2017-Sep-17 10:07N 37°33' E 023°54'112.7
2017-Sep-17 10:01N 37°34' E 023°53'612.6
2017-Sep-17 09:31N 37°37' E 023°46'612.0
2017-Sep-17 09:01N 37°42' E 023°41'612.8
2017-Sep-17 08:31N 37°47' E 023°37'612.2
2017-Sep-17 08:00N 37°53' E 023°36'4 8.4
2017-Sep-17 07:31N 37°57' E 023°34'4 8.3
2017-Sep-17 07:00N 38°01' E 023°35'1 1.0
2017-Sep-17 06:28N 38°01' E 023°36'0 0.0
2017-Sep-17 05:58N 38°01' E 023°36'0 0.0
2017-Sep-17 05:19N 38°01' E 023°36'0 0.0
2017-Sep-17 04:55N 38°02' E 023°36'0 0.0
2017-Sep-17 04:28N 38°01' E 023°36'0 0.0
2017-Sep-17 03:58N 38°01' E 023°36'0 0.0
2017-Sep-17 03:25N 38°01' E 023°36'0 0.0
2017-Sep-17 02:58N 38°01' E 023°36'0 0.0
2017-Sep-17 02:28N 38°01' E 023°36'0 0.0
2017-Sep-17 01:58N 38°01' E 023°36'0 0.0
2017-Sep-17 01:28N 38°01' E 023°36'0 0.0
2017-Sep-17 00:58N 38°01' E 023°36'0 0.0
2017-Sep-17 00:25N 38°01' E 023°36'0 0.0
2017-Sep-16 23:58N 38°02' E 023°36'0 0.0
2017-Sep-16 23:25N 38°01' E 023°36'0 0.0
2017-Sep-16 22:55N 38°01' E 023°36'0 0.0
2017-Sep-16 22:28N 38°01' E 023°36'0 0.0
2017-Sep-16 21:55N 38°01' E 023°36'0 0.0
2017-Sep-16 21:25N 38°01' E 023°36'0 0.0
2017-Sep-16 20:43N 38°01' E 023°36'0 0.0
2017-Sep-16 20:28N 38°01' E 023°36'0 0.0
2017-Sep-16 19:55N 38°01' E 023°36'0 0.0
2017-Sep-16 19:28N 38°02' E 023°36'0 0.0
2017-Sep-16 18:49N 38°01' E 023°36'0 0.0
2017-Sep-16 18:25N 38°01' E 023°36'0 0.0
2017-Sep-16 17:55N 38°01' E 023°36'0 0.0
2017-Sep-16 17:25N 38°02' E 023°36'0 0.0
2017-Sep-16 16:58N 38°01' E 023°36'0 0.0
2017-Sep-16 16:25N 38°01' E 023°36'0 0.0
2017-Sep-16 15:58N 38°02' E 023°36'0 0.0
2017-Sep-16 15:28N 38°02' E 023°36'0 0.0
2017-Sep-16 14:55N 38°01' E 023°36'0 0.0
2017-Sep-16 14:28N 38°02' E 023°36'0 0.0
2017-Sep-16 13:55N 38°02' E 023°36'0 0.0
2017-Sep-16 13:19N 38°01' E 023°36'0 0.0
2017-Sep-16 12:55N 38°02' E 023°36'0 0.0
2017-Sep-16 12:28N 38°02' E 023°36'0 0.0
2017-Sep-16 11:55N 38°01' E 023°36'0 0.0
2017-Sep-16 11:28N 38°02' E 023°36'0 0.0
2017-Sep-16 10:55N 38°02' E 023°36'0 0.0
2017-Sep-16 10:30N 38°02' E 023°36'1 2.7
2017-Sep-16 10:00N 38°01' E 023°34'3 6.1
2017-Sep-16 09:31N 37°58' E 023°33'4 8.0
2017-Sep-16 09:00N 37°55' E 023°36'0 0.5
2017-Sep-16 08:31N 37°55' E 023°36'0 0.5
2017-Sep-16 08:01N 37°55' E 023°36'1 1.1
2017-Sep-16 07:31N 37°54' E 023°36'510.4
2017-Sep-16 07:00N 37°50' E 023°40'612.8
2017-Sep-16 06:30N 37°44' E 023°43'713.1
2017-Sep-16 06:01N 37°39' E 023°48'713.3
2017-Sep-16 05:28N 37°34' E 023°55'713.1
2017-Sep-16 04:58N 37°30' E 024°01'613.2
2017-Sep-16 04:30N 37°25' E 024°06'612.6
2017-Sep-16 04:01N 37°21' E 024°12'45213.0
2017-Sep-14 17:15N 34°31' E 032°49'311.8
2017-Sep-14 17:00N 34°31' E 032°52'612.5
2017-Sep-14 16:30N 34°31' E 032°60'612.5
2017-Sep-14 16:00N 34°32' E 033°07'613.0
2017-Sep-14 15:30N 34°35' E 033°14'713.0
2017-Sep-14 15:00N 34°38' E 033°21'813.1
2017-Sep-14 14:23N 34°42' E 033°30'813.3
2017-Sep-14 13:47N 34°46' E 033°39'312.8
2017-Sep-14 13:30N 34°49' E 033°40'8 0.3
2017-Sep-13 13:49N 34°57' E 033°40'1 2.4
2017-Sep-13 13:29N 34°56' E 033°40'28 9.5
2017-Sep-13 10:33N 34°30' E 033°52'1012.9
2017-Sep-13 09:44N 34°20' E 033°56'1412.9
2017-Sep-13 08:40N 34°07' E 034°02'213.0
2017-Sep-13 08:30N 34°05' E 034°03'1013.0
2017-Sep-13 07:45N 33°56' E 034°07'513.0
2017-Sep-13 07:22N 33°51' E 034°09'1712.8
2017-Sep-13 06:03N 33°36' E 034°16'112.8
2017-Sep-13 06:00N 33°35' E 034°17'612.8
2017-Sep-13 05:30N 33°29' E 034°19'613.0
2017-Sep-13 05:00N 33°23' E 034°22'713.2
2017-Sep-13 04:27N 33°16' E 034°25'613.3
2017-Sep-13 04:00N 33°10' E 034°28'713.4
2017-Sep-13 03:30N 33°04' E 034°30'612.7
2017-Sep-13 03:00N 32°58' E 034°34'713.2
2017-Sep-13 02:30N 32°57' E 034°41'713.1
2017-Sep-13 02:00N 32°56' E 034°49'612.4
2017-Sep-13 01:30N 32°54' E 034°56'6 8.4
2017-Sep-13 00:48N 32°49' E 035°01'  

Dump ship's entire track history